createdAt,value
2022-11-01T00:03:29.106Z,100.00
2022-11-01T00:09:31.576Z,100.00
2022-11-01T00:15:33.451Z,100.00
2022-11-01T00:22:19.431Z,100.00
2022-11-01T00:28:21.340Z,100.00
2022-11-01T00:34:23.354Z,100.00
2022-11-01T00:40:26.193Z,100.00
2022-11-01T00:46:28.179Z,100.00
2022-11-01T00:52:30.050Z,100.00
2022-11-01T00:58:32.659Z,100.00
2022-11-01T01:10:55.480Z,100.00
2022-11-01T01:17:06.842Z,100.00
2022-11-01T01:23:09.092Z,100.00
2022-11-01T01:29:11.080Z,100.00
2022-11-01T01:35:13.101Z,100.00
2022-11-01T01:41:33.237Z,100.00
2022-11-01T01:48:16.297Z,100.00
2022-11-01T01:54:18.541Z,100.00
2022-11-01T02:00:20.834Z,100.00
2022-11-01T02:12:36.230Z,100.00
2022-11-01T02:19:01.331Z,100.00
2022-11-01T02:25:42.636Z,100.00
2022-11-01T02:31:56.452Z,100.00
2022-11-01T02:38:08.885Z,100.00
2022-11-01T02:44:18.896Z,100.00
2022-11-01T02:50:21.352Z,100.00
2022-11-01T02:56:23.646Z,100.00
2022-11-01T03:02:40.084Z,100.00
2022-11-01T03:08:51.798Z,100.00
2022-11-01T03:15:26.434Z,100.00
2022-11-01T03:21:54.534Z,100.00
2022-11-01T03:28:00.469Z,100.00
2022-11-01T03:34:07.178Z,100.00
2022-11-01T03:40:13.350Z,100.00
2022-11-01T03:46:16.540Z,100.00
2022-11-01T03:52:18.516Z,100.00
2022-11-01T03:58:20.433Z,100.00
2022-11-01T04:04:27.806Z,100.00
2022-11-01T04:10:30.349Z,100.00
2022-11-01T04:16:51.267Z,100.00
2022-11-01T04:22:53.147Z,100.00
2022-11-01T04:28:58.361Z,100.00
2022-11-01T04:35:00.337Z,100.00
2022-11-01T04:41:02.266Z,100.00
2022-11-01T04:47:04.289Z,100.00
2022-11-01T04:53:06.906Z,100.00
2022-11-01T04:59:08.826Z,100.00
2022-11-01T05:05:13.038Z,100.00
2022-11-01T05:11:14.928Z,100.00
2022-11-01T05:17:18.227Z,100.00
2022-11-01T05:23:22.933Z,100.00
2022-11-01T05:29:32.830Z,100.00
2022-11-01T05:35:37.477Z,100.00
2022-11-01T05:41:40.614Z,100.00
2022-11-01T05:47:43.886Z,100.00
2022-11-01T05:53:49.100Z,100.00
2022-11-01T05:59:51.045Z,100.00
2022-11-01T06:05:53.097Z,100.00
2022-11-01T06:11:54.991Z,100.00
2022-11-01T06:18:01.318Z,100.00
2022-11-01T06:24:03.665Z,100.00
2022-11-01T06:30:06.328Z,100.00
2022-11-01T06:36:08.485Z,100.00
2022-11-01T06:42:10.655Z,100.00
2022-11-01T06:48:12.577Z,100.00
2022-11-01T06:54:14.759Z,100.00
2022-11-01T07:00:16.867Z,100.00
2022-11-01T07:06:19.821Z,100.00
2022-11-01T07:12:21.722Z,100.00
2022-11-01T07:18:23.668Z,100.00
2022-11-01T07:24:25.571Z,100.00
2022-11-01T07:30:28.426Z,100.00
2022-11-01T07:36:30.483Z,100.00
2022-11-01T07:42:32.575Z,100.00
2022-11-01T07:48:36.835Z,100.00
2022-11-01T07:54:41.903Z,100.00
2022-11-01T08:00:45.190Z,99.84
2022-11-01T08:14:22.293Z,98.96
2022-11-01T08:20:27.481Z,98.38
2022-11-01T08:26:29.517Z,97.35
2022-11-01T08:32:31.544Z,94.56
2022-11-01T08:38:33.770Z,91.94
2022-11-01T08:44:41.279Z,89.38
2022-11-01T08:51:03.230Z,87.31
2022-11-01T08:57:07.120Z,86.93
2022-11-01T09:03:09.080Z,84.13
2022-11-01T09:09:11.951Z,85.13
2022-11-01T09:15:14.147Z,85.15
2022-11-01T09:21:17.118Z,86.03
2022-11-01T09:33:49.544Z,85.70
2022-11-01T09:39:57.442Z,86.56
2022-11-01T09:46:07.834Z,85.60
2022-11-01T09:52:25.537Z,84.88
2022-11-01T09:58:58.938Z,85.65
2022-11-01T10:05:34.124Z,83.87
2022-11-01T10:12:24.310Z,84.58
2022-11-01T10:18:33.214Z,85.29
2022-11-01T10:24:59.111Z,84.27
2022-11-01T10:31:17.274Z,83.53
2022-11-01T10:37:29.646Z,83.59
2022-11-01T10:43:50.278Z,82.97
2022-11-01T10:50:15.681Z,81.89
2022-11-01T10:56:37.178Z,79.74
2022-11-01T11:02:45.697Z,78.44
2022-11-01T11:08:53.373Z,78.37
2022-11-01T11:15:15.916Z,77.16
2022-11-01T11:21:22.179Z,74.66
2022-11-01T11:27:33.749Z,75.12
2022-11-01T11:33:37.245Z,74.51
2022-11-01T11:39:40.859Z,71.96
2022-11-01T11:45:43.218Z,71.79
2022-11-01T11:51:46.800Z,70.28
2022-11-01T11:57:54.847Z,69.05
2022-11-01T12:04:12.368Z,68.49
2022-11-01T12:10:34.106Z,65.81
2022-11-01T12:16:45.644Z,64.17
2022-11-01T12:23:45.990Z,63.32
2022-11-01T12:30:15.314Z,60.38
2022-11-01T12:36:27.803Z,61.88
2022-11-01T12:43:29.980Z,63.20
2022-11-01T12:50:01.516Z,65.76
2022-11-01T12:56:03.511Z,64.47
2022-11-01T13:02:08.446Z,64.91
2022-11-01T13:15:31.226Z,63.44
2022-11-01T13:22:06.982Z,61.40
2022-11-01T13:28:34.200Z,60.65
2022-11-01T13:35:29.220Z,60.55
2022-11-01T13:41:48.458Z,58.25
2022-11-01T13:47:56.926Z,59.07
2022-11-01T13:54:15.268Z,60.00
2022-11-01T14:00:45.937Z,58.56
2022-11-01T14:07:11.014Z,58.39
2022-11-01T14:13:28.818Z,57.73
2022-11-01T14:19:30.809Z,57.10
2022-11-01T14:25:39.330Z,55.45
2022-11-01T14:31:46.224Z,54.60
2022-11-01T14:37:53.549Z,55.79
2022-11-01T14:50:57.478Z,57.86
2022-11-01T14:56:59.909Z,57.98
2022-11-01T15:10:48.495Z,67.27
2022-11-01T15:16:52.060Z,69.84
2022-11-01T15:22:59.201Z,72.21
2022-11-01T15:29:04.957Z,73.26
2022-11-01T15:42:16.380Z,68.61
2022-11-01T15:56:18.545Z,60.67
2022-11-01T16:02:35.314Z,60.70
2022-11-01T16:08:49.119Z,63.89
2022-11-01T16:15:18.224Z,67.43
2022-11-01T16:21:22.713Z,67.37
2022-11-01T16:27:28.414Z,69.33
2022-11-01T16:33:35.797Z,69.01
2022-11-01T16:39:37.844Z,70.05
2022-11-01T16:45:39.825Z,71.09
2022-11-01T16:51:42.442Z,72.14
2022-11-01T16:57:47.256Z,73.49
2022-11-01T17:03:50.124Z,73.49
2022-11-01T17:09:52.415Z,73.71
2022-11-01T17:15:54.543Z,73.24
2022-11-01T17:21:58.907Z,73.78
2022-11-01T17:28:01.540Z,72.83
2022-11-01T17:34:49.263Z,72.78
2022-11-01T17:40:51.967Z,71.69
2022-11-01T17:46:53.902Z,71.63
2022-11-01T17:52:55.791Z,70.50
2022-11-01T18:05:23.413Z,68.66
2022-11-01T18:24:21.258Z,68.95
2022-11-01T18:30:24.380Z,69.42
2022-11-01T18:37:26.360Z,70.35
2022-11-01T18:43:33.552Z,72.52
2022-11-01T18:49:35.711Z,72.36
2022-11-01T18:55:39.397Z,72.23
2022-11-01T19:01:41.560Z,72.22
2022-11-01T19:08:09.585Z,72.18
2022-11-01T19:14:13.313Z,71.14
2022-11-01T19:20:27.934Z,70.50
2022-11-01T19:26:39.106Z,70.42
2022-11-01T19:32:41.135Z,69.74
2022-11-01T19:38:45.116Z,71.65
2022-11-01T19:44:47.338Z,72.62
2022-11-01T19:50:49.642Z,73.90
2022-11-01T19:56:51.577Z,74.38
2022-11-01T20:02:58.510Z,75.41
2022-11-01T20:09:26.088Z,74.98
2022-11-01T20:15:28.040Z,75.79
2022-11-01T20:21:30.132Z,75.59
2022-11-01T20:27:32.081Z,75.30
2022-11-01T20:33:34.533Z,75.84
2022-11-01T20:39:36.640Z,75.24
2022-11-01T20:45:41.281Z,75.56
2022-11-01T20:51:44.714Z,75.83
2022-11-01T20:57:47.169Z,76.53
2022-11-01T21:03:49.416Z,77.22
2022-11-01T21:09:51.800Z,77.83
2022-11-01T21:15:57.118Z,77.88
2022-11-01T21:21:59.555Z,77.79
2022-11-01T21:28:11.418Z,78.35
2022-11-01T21:34:13.475Z,78.66
2022-11-01T21:40:30.368Z,79.17
2022-11-01T21:46:35.966Z,79.87
2022-11-01T21:52:41.314Z,80.67
2022-11-01T21:58:43.551Z,81.33
2022-11-01T22:04:45.972Z,81.72
2022-11-01T22:11:00.457Z,81.69
2022-11-01T22:17:02.848Z,82.02
2022-11-01T22:23:05.229Z,82.47
2022-11-01T22:29:07.470Z,82.03
2022-11-01T22:35:12.600Z,82.38
2022-11-01T22:41:31.585Z,81.48
2022-11-01T22:47:35.458Z,79.12
2022-11-01T22:53:37.416Z,76.76
2022-11-01T22:59:49.552Z,75.53
2022-11-01T23:06:01.081Z,75.97
2022-11-01T23:12:21.964Z,76.05
2022-11-01T23:18:30.384Z,76.26
2022-11-01T23:24:33.065Z,76.52
2022-11-01T23:30:36.061Z,77.36
2022-11-01T23:36:38.710Z,76.94
2022-11-01T23:42:43.687Z,77.26
2022-11-01T23:48:46.216Z,77.52
2022-11-01T23:54:48.126Z,77.82
